createdAt,value
2023-01-17T00:00:01.798Z,13.70
2023-01-17T00:02:31.648Z,13.20
2023-01-17T00:05:19.437Z,13.70
2023-01-17T00:08:06.897Z,14.00
2023-01-17T00:10:40.777Z,14.60
2023-01-17T00:13:09.697Z,12.80
2023-01-17T00:15:40.163Z,12.50
2023-01-17T00:18:08.912Z,12.40
2023-01-17T00:20:56.236Z,13.00
2023-01-17T00:23:44.897Z,14.40
2023-01-17T00:26:17.338Z,13.50
2023-01-17T00:28:46.987Z,13.30
2023-01-17T00:31:16.776Z,13.40
2023-01-17T00:33:45.374Z,12.10
2023-01-17T00:36:15.220Z,12.60
2023-01-17T00:39:23.583Z,12.20
2023-01-17T00:42:31.942Z,14.30
2023-01-17T00:46:04.287Z,15.30
2023-01-17T00:48:52.862Z,24.00
2023-01-17T00:51:41.410Z,22.00
2023-01-17T00:54:29.449Z,17.50
2023-01-17T00:57:16.858Z,16.50
2023-01-17T01:00:04.401Z,15.50
2023-01-17T01:02:52.338Z,14.50
2023-01-17T01:05:40.226Z,14.20
2023-01-17T01:08:47.982Z,15.10
2023-01-17T01:11:38.274Z,15.40
2023-01-17T01:14:29.192Z,14.10
2023-01-17T01:17:16.706Z,14.30
2023-01-17T01:20:04.116Z,14.00
2023-01-17T01:22:51.321Z,14.20
2023-01-17T01:25:38.681Z,14.20
2023-01-17T01:28:32.467Z,13.60
2023-01-17T01:31:22.172Z,15.60
2023-01-17T01:33:52.778Z,17.00
2023-01-17T01:36:21.683Z,18.80
2023-01-17T01:38:50.843Z,23.70
2023-01-17T01:41:19.541Z,17.30
2023-01-17T01:43:54.048Z,19.70
2023-01-17T01:46:42.114Z,15.40
2023-01-17T01:49:28.675Z,16.30
2023-01-17T01:52:02.125Z,23.00
2023-01-17T01:54:51.580Z,24.50
2023-01-17T01:57:24.776Z,26.60
2023-01-17T01:59:59.422Z,26.80
2023-01-17T02:02:31.225Z,26.20
2023-01-17T02:07:38.366Z,19.80
2023-01-17T02:10:07.482Z,18.80
2023-01-17T02:12:36.415Z,18.80
2023-01-17T02:15:07.970Z,18.90
2023-01-17T02:18:08.337Z,12.00
2023-01-17T02:21:16.965Z,14.10
2023-01-17T02:24:20.259Z,13.80
2023-01-17T02:26:54.520Z,13.40
2023-01-17T02:29:35.141Z,12.60
2023-01-17T02:32:09.766Z,14.00
2023-01-17T02:34:54.223Z,17.70
2023-01-17T02:37:35.276Z,19.60
2023-01-17T02:40:16.999Z,16.70
2023-01-17T02:42:53.768Z,16.30
2023-01-17T02:45:22.947Z,16.60
2023-01-17T02:47:52.165Z,14.20
2023-01-17T02:50:30.479Z,13.60
2023-01-17T02:53:05.206Z,13.30
2023-01-17T02:56:06.461Z,12.70
2023-01-17T02:58:45.021Z,11.80
2023-01-17T03:01:13.626Z,12.80
2023-01-17T03:04:05.033Z,11.60
2023-01-17T03:06:45.368Z,11.70
2023-01-17T03:09:16.377Z,13.30
2023-01-17T03:11:45.725Z,12.70
2023-01-17T03:14:14.576Z,12.30
2023-01-17T03:16:43.714Z,12.80
2023-01-17T03:19:15.023Z,12.70
2023-01-17T03:21:43.802Z,11.50
2023-01-17T03:24:12.397Z,11.90
2023-01-17T03:26:45.481Z,13.70
2023-01-17T03:29:16.743Z,14.90
2023-01-17T03:31:45.513Z,14.20
2023-01-17T03:34:14.201Z,14.50
2023-01-17T03:36:43.193Z,14.10
2023-01-17T03:39:12.000Z,12.90
2023-01-17T03:41:40.569Z,14.10
2023-01-17T03:44:09.457Z,14.90
2023-01-17T03:46:38.353Z,13.20
2023-01-17T03:49:06.910Z,13.70
2023-01-17T03:52:35.220Z,13.90
2023-01-17T03:55:04.724Z,12.60
2023-01-17T03:58:33.179Z,12.80
2023-01-17T04:05:59.282Z,12.30
2023-01-17T04:09:27.669Z,11.90
2023-01-17T04:12:56.357Z,12.00
2023-01-17T04:15:25.044Z,12.20
2023-01-17T04:17:53.876Z,13.30
2023-01-17T04:20:32.048Z,12.30
2023-01-17T04:23:00.867Z,11.50
2023-01-17T04:25:33.411Z,13.50
2023-01-17T04:28:06.358Z,13.80
2023-01-17T04:30:34.827Z,13.10
2023-01-17T04:34:03.369Z,12.20
2023-01-17T04:37:36.665Z,12.30
2023-01-17T04:41:05.462Z,13.00
2023-01-17T04:44:33.950Z,12.50
2023-01-17T04:47:03.571Z,11.40
2023-01-17T04:49:32.260Z,11.10
2023-01-17T04:52:00.829Z,11.60
2023-01-17T04:54:29.725Z,10.90
2023-01-17T04:56:58.714Z,10.70
2023-01-17T04:59:27.520Z,11.00
2023-01-17T05:01:56.222Z,11.20
2023-01-17T05:04:25.293Z,26.70
2023-01-17T05:06:55.230Z,47.80
2023-01-17T05:09:24.199Z,33.10
2023-01-17T05:11:52.991Z,20.50
2023-01-17T05:14:26.177Z,17.20
2023-01-17T05:16:56.034Z,14.80
2023-01-17T05:19:26.967Z,15.60
2023-01-17T05:21:55.924Z,18.00
2023-01-17T05:24:24.512Z,19.90
2023-01-17T05:26:55.138Z,15.20
2023-01-17T05:29:24.136Z,12.30
2023-01-17T05:31:52.834Z,11.70
2023-01-17T05:34:21.711Z,11.10
2023-01-17T05:36:50.515Z,11.30
2023-01-17T05:39:19.393Z,11.40
2023-01-17T05:41:47.983Z,14.50
2023-01-17T05:44:16.767Z,15.20
2023-01-17T05:46:45.761Z,17.60
2023-01-17T05:49:14.551Z,20.00
2023-01-17T05:51:43.235Z,23.40
2023-01-17T05:54:12.540Z,23.30
2023-01-17T05:56:43.460Z,24.50
2023-01-17T05:59:18.827Z,16.70
2023-01-17T06:01:51.741Z,14.80
2023-01-17T06:04:20.666Z,20.20
2023-01-17T06:06:50.409Z,12.10
2023-01-17T06:09:19.205Z,10.20
2023-01-17T06:11:48.150Z,11.00
2023-01-17T06:14:16.802Z,15.00
2023-01-17T06:16:48.122Z,15.40
2023-01-17T06:19:17.040Z,14.00
2023-01-17T06:21:46.215Z,12.60
2023-01-17T06:24:15.638Z,11.60
2023-01-17T06:26:45.022Z,12.80
2023-01-17T06:29:13.983Z,13.40
2023-01-17T06:31:42.497Z,13.30
2023-01-17T06:34:16.304Z,13.10
2023-01-17T06:36:44.959Z,14.60
2023-01-17T06:39:15.062Z,15.00
2023-01-17T06:41:44.519Z,15.90
2023-01-17T06:44:13.729Z,16.10
2023-01-17T06:46:42.701Z,15.90
2023-01-17T06:49:11.706Z,14.80
2023-01-17T06:51:43.484Z,15.90
2023-01-17T06:56:41.038Z,23.40
2023-01-17T06:59:09.625Z,25.10
2023-01-17T07:01:40.479Z,24.90
2023-01-17T07:04:10.188Z,24.80
2023-01-17T07:06:39.059Z,25.20
2023-01-17T07:09:08.377Z,24.90
2023-01-17T07:11:37.153Z,18.90
2023-01-17T07:14:05.733Z,16.10
2023-01-17T07:16:35.689Z,15.90
2023-01-17T07:19:04.953Z,14.60
2023-01-17T07:21:33.541Z,14.80
2023-01-17T07:24:02.399Z,14.00
2023-01-17T07:26:31.127Z,13.20
2023-01-17T07:29:00.926Z,15.10
2023-01-17T07:31:37.208Z,16.20
2023-01-17T07:34:07.215Z,15.00
2023-01-17T07:36:36.597Z,19.10
2023-01-17T07:39:06.487Z,20.70
2023-01-17T07:41:41.973Z,25.10
2023-01-17T07:44:11.479Z,24.30
2023-01-17T07:46:44.805Z,21.00
2023-01-17T07:49:15.030Z,13.20
2023-01-17T07:51:43.579Z,13.70
2023-01-17T07:54:14.113Z,14.20
2023-01-17T07:56:46.074Z,15.10
2023-01-17T07:59:15.067Z,13.80
2023-01-17T08:01:44.178Z,13.50
2023-01-17T08:04:16.278Z,12.70
2023-01-17T08:06:51.062Z,10.90
2023-01-17T08:09:20.156Z,11.40
2023-01-17T08:11:49.232Z,12.40
2023-01-17T08:14:18.043Z,10.30
2023-01-17T08:16:46.887Z,11.70
2023-01-17T08:19:16.898Z,11.50
2023-01-17T08:21:45.638Z,10.60
2023-01-17T08:24:15.141Z,13.10
2023-01-17T08:27:48.864Z,10.80
2023-01-17T08:31:17.783Z,10.20
2023-01-17T08:34:47.167Z,10.80
2023-01-17T08:37:15.953Z,14.70
2023-01-17T08:40:46.494Z,10.40
2023-01-17T08:43:37.225Z,9.50
2023-01-17T08:46:06.760Z,11.30
2023-01-17T08:48:35.490Z,9.50
2023-01-17T08:51:05.272Z,9.40
2023-01-17T08:53:34.994Z,9.40
2023-01-17T08:56:05.600Z,9.60
2023-01-17T08:58:35.567Z,8.70
2023-01-17T09:01:06.125Z,9.40
2023-01-17T09:03:35.603Z,8.90
2023-01-17T09:06:09.514Z,9.10
2023-01-17T09:08:38.879Z,11.90
2023-01-17T09:11:10.066Z,16.10
2023-01-17T09:13:39.872Z,13.70
2023-01-17T09:16:09.707Z,19.00
2023-01-17T09:18:39.598Z,10.90
2023-01-17T09:21:17.258Z,8.60
2023-01-17T09:23:46.647Z,8.50
2023-01-17T09:26:27.683Z,7.70
2023-01-17T09:29:00.768Z,8.40
2023-01-17T09:31:30.684Z,11.40
2023-01-17T09:34:00.162Z,7.50
2023-01-17T09:36:34.308Z,7.80
2023-01-17T09:39:04.627Z,8.50
2023-01-17T09:41:41.525Z,7.20
2023-01-17T09:44:16.444Z,9.10
2023-01-17T09:46:48.579Z,7.80
2023-01-17T09:52:07.616Z,6.80
2023-01-17T09:54:42.306Z,7.00
2023-01-17T09:57:24.116Z,7.20
2023-01-17T10:00:31.167Z,7.50
2023-01-17T10:03:15.042Z,6.70
2023-01-17T10:06:02.880Z,6.40
2023-01-17T10:08:41.199Z,6.40
2023-01-17T10:11:30.360Z,6.50
2023-01-17T10:14:35.404Z,6.30
2023-01-17T10:17:45.919Z,6.50
2023-01-17T10:20:26.314Z,6.50
2023-01-17T10:23:10.996Z,6.60
2023-01-17T10:25:41.109Z,7.40
2023-01-17T10:28:17.807Z,7.10
2023-01-17T10:30:49.371Z,6.90
2023-01-17T10:36:20.122Z,6.40
2023-01-17T10:38:53.617Z,6.60
2023-01-17T10:41:37.517Z,6.70
2023-01-17T10:44:12.582Z,6.80
2023-01-17T10:46:53.454Z,7.00
2023-01-17T10:49:26.237Z,6.30
2023-01-17T10:52:13.970Z,6.60
2023-01-17T10:55:22.498Z,6.40
2023-01-17T10:57:51.608Z,6.60
2023-01-17T11:00:24.988Z,6.80
2023-01-17T11:02:53.907Z,6.90
2023-01-17T11:05:29.419Z,6.40
2023-01-17T11:08:01.492Z,6.90
2023-01-17T11:10:36.929Z,6.70
2023-01-17T11:13:29.010Z,7.10
2023-01-17T11:16:21.847Z,6.30
2023-01-17T11:19:08.806Z,6.60
2023-01-17T11:21:40.108Z,6.70
2023-01-17T11:24:20.263Z,7.20
2023-01-17T11:26:50.988Z,7.20
2023-01-17T11:29:39.161Z,7.10
2023-01-17T11:32:23.055Z,7.20
2023-01-17T11:35:14.550Z,7.50
2023-01-17T11:38:16.779Z,7.10
2023-01-17T11:40:48.037Z,6.30
2023-01-17T11:43:26.638Z,6.20
2023-01-17T11:46:15.030Z,6.70
2023-01-17T11:48:48.671Z,7.30
2023-01-17T11:51:21.771Z,6.20
2023-01-17T11:53:53.515Z,6.60
2023-01-17T11:56:37.100Z,6.50
2023-01-17T11:59:27.585Z,6.30
2023-01-17T12:02:32.329Z,6.10
2023-01-17T12:05:51.791Z,6.30
2023-01-17T12:08:51.611Z,6.50
2023-01-17T12:11:36.454Z,5.70
2023-01-17T12:14:06.081Z,5.70
2023-01-17T12:17:08.446Z,5.80
2023-01-17T12:20:01.763Z,5.80
2023-01-17T12:22:52.432Z,6.00
2023-01-17T12:25:40.158Z,6.00
2023-01-17T12:28:27.396Z,6.30
2023-01-17T12:31:11.889Z,6.00
2023-01-17T12:33:50.468Z,6.40
2023-01-17T12:36:22.123Z,7.30
2023-01-17T12:38:51.519Z,6.80
2023-01-17T12:41:31.539Z,6.50
2023-01-17T12:44:01.495Z,6.30
2023-01-17T12:46:43.584Z,6.30
2023-01-17T12:49:30.916Z,7.00
2023-01-17T12:52:07.292Z,6.80
2023-01-17T12:54:45.185Z,6.30
2023-01-17T12:57:25.833Z,6.60
2023-01-17T13:00:08.573Z,7.40
2023-01-17T13:02:56.396Z,7.50
2023-01-17T13:05:36.975Z,7.10
2023-01-17T13:08:29.421Z,7.30
2023-01-17T13:11:04.257Z,7.60
2023-01-17T13:13:33.657Z,7.20
2023-01-17T13:16:15.483Z,7.20
2023-01-17T13:18:47.729Z,6.30
2023-01-17T13:21:33.407Z,5.60
2023-01-17T13:24:40.747Z,6.20
2023-01-17T13:27:42.878Z,6.00
2023-01-17T13:30:57.948Z,4.90
2023-01-17T13:33:59.404Z,5.80
2023-01-17T13:37:37.008Z,5.40
2023-01-17T13:40:45.204Z,4.40
2023-01-17T13:47:39.953Z,4.70
2023-01-17T13:50:57.501Z,4.60
2023-01-17T13:53:47.268Z,3.30
2023-01-17T13:56:19.338Z,2.90
2023-01-17T13:58:52.223Z,3.00
2023-01-17T14:01:24.958Z,2.70
2023-01-17T14:04:06.079Z,3.00
2023-01-17T14:06:41.283Z,2.50
2023-01-17T14:09:17.692Z,3.00
2023-01-17T14:12:05.543Z,2.70
2023-01-17T14:14:40.667Z,2.80
2023-01-17T14:17:31.167Z,2.50
2023-01-17T14:20:25.684Z,2.90
2023-01-17T14:23:02.790Z,4.50
2023-01-17T14:25:40.827Z,4.80
2023-01-17T14:28:29.606Z,13.00
2023-01-17T14:31:01.312Z,3.50
2023-01-17T14:33:35.889Z,3.30
2023-01-17T14:36:15.634Z,2.60
2023-01-17T14:38:46.476Z,3.00
2023-01-17T14:41:29.377Z,2.70
2023-01-17T14:44:00.230Z,3.00
2023-01-17T14:46:32.610Z,2.70
2023-01-17T14:49:20.955Z,2.70
2023-01-17T14:52:11.151Z,2.90
2023-01-17T14:55:39.945Z,2.80
2023-01-17T15:03:01.909Z,2.90
2023-01-17T15:05:31.628Z,2.40
2023-01-17T15:09:00.121Z,2.70
2023-01-17T15:11:34.085Z,3.00
2023-01-17T15:14:07.572Z,2.80
2023-01-17T15:16:41.885Z,2.80
2023-01-17T15:19:15.641Z,2.90
2023-01-17T15:21:52.219Z,2.70
2023-01-17T15:26:52.258Z,2.70
2023-01-17T15:29:28.918Z,2.90
2023-01-17T15:32:00.357Z,2.70
2023-01-17T15:34:39.412Z,2.50
2023-01-17T15:37:22.686Z,3.00
2023-01-17T15:39:52.153Z,2.50
2023-01-17T15:42:29.110Z,2.90
2023-01-17T15:45:02.748Z,2.60
2023-01-17T15:47:34.812Z,3.00
2023-01-17T15:50:28.026Z,2.50
2023-01-17T15:53:01.594Z,2.50
2023-01-17T15:55:34.193Z,2.80
2023-01-17T15:58:04.883Z,10.70
2023-01-17T16:00:41.240Z,18.40
2023-01-17T16:03:25.280Z,14.70
2023-01-17T16:05:57.902Z,14.50
2023-01-17T16:08:28.507Z,13.60
2023-01-17T16:11:06.476Z,13.50
2023-01-17T16:13:39.989Z,18.80
2023-01-17T16:16:19.761Z,27.40
2023-01-17T16:18:54.174Z,17.80
2023-01-17T16:21:26.779Z,16.20
2023-01-17T16:23:55.548Z,15.80
2023-01-17T16:26:29.497Z,15.90
2023-01-17T16:28:58.543Z,30.10
2023-01-17T16:31:28.059Z,30.60
2023-01-17T16:33:57.150Z,36.00
2023-01-17T16:36:26.158Z,43.80
2023-01-17T16:39:00.594Z,23.70
2023-01-17T16:41:31.511Z,23.40
2023-01-17T16:44:03.864Z,32.40
2023-01-17T16:46:32.984Z,31.10
2023-01-17T16:49:01.766Z,25.70
2023-01-17T16:51:31.752Z,24.10
2023-01-17T16:54:02.126Z,26.30
2023-01-17T16:56:30.930Z,32.00
2023-01-17T16:58:59.585Z,30.00
2023-01-17T17:01:28.930Z,38.20
2023-01-17T17:03:57.572Z,31.80
2023-01-17T17:06:27.281Z,34.80
2023-01-17T17:08:56.083Z,33.70
2023-01-17T17:11:25.642Z,21.40
2023-01-17T17:13:54.661Z,21.50
2023-01-17T17:16:26.934Z,19.80
2023-01-17T17:19:05.465Z,22.90
2023-01-17T17:21:37.150Z,26.60
2023-01-17T17:24:06.115Z,22.40
2023-01-17T17:26:36.865Z,22.50
2023-01-17T17:29:10.769Z,30.60
2023-01-17T17:31:42.603Z,29.60
2023-01-17T17:34:15.016Z,30.50
2023-01-17T17:36:45.633Z,35.80
2023-01-17T17:39:17.214Z,40.60
2023-01-17T17:44:17.641Z,38.10
2023-01-17T17:46:49.672Z,29.50
2023-01-17T17:49:18.690Z,27.50
2023-01-17T17:51:48.398Z,26.50
2023-01-17T17:54:21.794Z,27.50
2023-01-17T17:56:50.786Z,24.60
2023-01-17T17:59:19.810Z,26.20
2023-01-17T18:01:48.736Z,25.20
2023-01-17T18:04:17.963Z,26.60
2023-01-17T18:06:46.765Z,26.80
2023-01-17T18:09:15.962Z,27.80
2023-01-17T18:11:48.651Z,26.50
2023-01-17T18:14:21.329Z,30.60
2023-01-17T18:16:56.564Z,32.10
2023-01-17T18:19:27.201Z,35.70
2023-01-17T18:21:56.215Z,24.00
2023-01-17T18:24:25.917Z,28.00
2023-01-17T18:26:57.425Z,32.00
2023-01-17T18:31:57.474Z,20.50
2023-01-17T18:34:30.647Z,17.90
2023-01-17T18:39:30.397Z,17.80
2023-01-17T18:42:00.043Z,16.70
2023-01-17T18:44:29.955Z,16.50
2023-01-17T18:47:02.519Z,15.20
2023-01-17T18:49:33.005Z,15.20
2023-01-17T18:52:01.691Z,15.00
2023-01-17T18:54:30.698Z,15.60
2023-01-17T18:56:59.769Z,14.10
2023-01-17T18:59:28.507Z,13.20
2023-01-17T19:01:59.242Z,14.20
2023-01-17T19:04:28.934Z,14.60
2023-01-17T19:06:57.610Z,14.80
2023-01-17T19:09:26.534Z,15.20
2023-01-17T19:11:57.208Z,15.40
2023-01-17T19:14:25.959Z,15.00
2023-01-17T19:16:55.257Z,15.30
2023-01-17T19:19:24.250Z,15.70
2023-01-17T19:21:54.087Z,15.40
2023-01-17T19:24:22.854Z,15.20
2023-01-17T19:26:56.865Z,15.50
2023-01-17T19:29:27.262Z,16.50
2023-01-17T19:31:56.086Z,18.10
2023-01-17T19:34:25.230Z,17.80
2023-01-17T19:36:55.707Z,16.60
2023-01-17T19:39:26.367Z,17.00
2023-01-17T19:43:02.822Z,13.70
2023-01-17T19:46:35.341Z,14.00
2023-01-17T19:50:04.300Z,13.90
2023-01-17T19:57:30.565Z,12.30
2023-01-17T20:00:59.321Z,11.40
2023-01-17T20:04:28.878Z,8.90
2023-01-17T20:07:58.796Z,8.30
2023-01-17T20:15:25.400Z,7.90
2023-01-17T20:18:54.710Z,6.60
2023-01-17T20:22:27.162Z,6.50
2023-01-17T20:25:55.757Z,6.90
2023-01-17T20:29:25.369Z,6.40
2023-01-17T20:32:54.066Z,6.30
2023-01-17T20:36:23.785Z,6.30
2023-01-17T20:39:33.147Z,5.30
2023-01-17T20:42:01.853Z,6.10
2023-01-17T20:44:32.839Z,5.40
2023-01-17T20:47:01.438Z,5.70
2023-01-17T20:49:31.100Z,5.60
2023-01-17T20:52:01.273Z,5.80
2023-01-17T20:54:29.852Z,5.70
2023-01-17T20:56:58.438Z,5.40
2023-01-17T20:59:27.432Z,4.70
2023-01-17T21:01:56.366Z,4.80
2023-01-17T21:04:26.241Z,4.80
2023-01-17T21:07:59.618Z,5.40
2023-01-17T21:11:28.338Z,3.90
2023-01-17T21:14:57.635Z,4.30
2023-01-17T21:18:31.357Z,4.60
2023-01-17T21:22:12.236Z,4.30
2023-01-17T21:25:40.812Z,3.70
2023-01-17T21:32:25.519Z,4.20
2023-01-17T21:35:54.827Z,3.90
2023-01-17T21:39:26.186Z,4.20
2023-01-17T21:42:10.555Z,4.50
2023-01-17T21:44:51.772Z,4.20
2023-01-17T21:48:23.879Z,4.20
2023-01-17T21:51:51.460Z,3.70
2023-01-17T21:55:19.103Z,3.70
2023-01-17T21:58:07.182Z,3.10
2023-01-17T22:00:36.875Z,4.30
2023-01-17T22:03:05.983Z,4.50
2023-01-17T22:05:34.975Z,6.60
2023-01-17T22:08:13.903Z,7.00
2023-01-17T22:10:45.703Z,8.90
2023-01-17T22:13:16.658Z,6.70
2023-01-17T22:15:46.245Z,7.00
2023-01-17T22:18:15.622Z,5.20
2023-01-17T22:20:44.302Z,5.80
2023-01-17T22:23:13.291Z,5.50
2023-01-17T22:25:41.979Z,6.30
2023-01-17T22:29:14.360Z,5.00
2023-01-17T22:32:42.824Z,5.10
2023-01-17T22:36:11.338Z,13.00
2023-01-17T22:39:40.139Z,7.60
2023-01-17T22:42:58.768Z,4.60
2023-01-17T22:50:19.511Z,3.80
2023-01-17T22:53:47.733Z,3.20
2023-01-17T22:57:20.195Z,3.10
2023-01-17T23:00:48.924Z,3.10
2023-01-17T23:04:17.965Z,3.00
2023-01-17T23:11:42.825Z,3.00
2023-01-17T23:14:29.968Z,3.50
2023-01-17T23:17:20.136Z,4.20
2023-01-17T23:19:51.408Z,4.00
2023-01-17T23:22:27.205Z,4.40
2023-01-17T23:25:11.241Z,4.90
2023-01-17T23:27:59.851Z,3.60
2023-01-17T23:30:35.721Z,4.50
2023-01-17T23:33:07.145Z,4.40
2023-01-17T23:35:42.189Z,22.90
2023-01-17T23:38:34.068Z,25.40
2023-01-17T23:41:23.797Z,7.80
2023-01-17T23:43:54.934Z,5.40
2023-01-17T23:46:25.634Z,6.50
2023-01-17T23:49:54.274Z,8.10
2023-01-17T23:53:25.209Z,3.50
2023-01-17T23:56:53.595Z,5.00
